KBZN/BZN METAR and TAF weather

Enter ICAO airport designator
Station Type Date Time Source
KBZN METAR 2018/01/22 11:56 UTC NOAA

KBZN 221156Z AUTO 20004KT 10SM OVC090 M11/M14 A3007 RMK AO2 SLP248 I6000 T11111139 11111 21161 50000


Station Type Date Time Source
KBZN Decoded METAR 2018/01/22 11:56 UTC NOAA

BOZEMAN GALLATIN FIELD, MT, United States (KBZN) 45-47N 111-09W 1361M
Jan 22, 2018 - 06:56 AM EST / 2018.01.22 1156 UTC
Wind: from the SSW (200 degrees) at 5 MPH (4 KT):0
Visibility: 10 mile(s):0
Sky conditions: overcast
Temperature: 12.0 F (-11.1 C)
Windchill: 3 F (-16 C):1
Dew Point: 7.0 F (-13.9 C)
Relative Humidity: 79%
Pressure (altimeter): 30.07 in. Hg (1018 hPa)
Pressure tendency: 0.00 inches (0.0 hPa) higher than three hours ago
ob: KBZN 221156Z AUTO 20004KT 10SM OVC090 M11/M14 A3007 RMK AO2 SLP248 I6000 T11111139 11111 21161 50000
cycle: 12

Station Type Date Time Source
KBZN TAF 2018/01/22 12:39 UTC NOAA

TAF KBZN 221136Z 2212/2318 VRB03KT P6SM SCT040 BKN070
FM221700 VRB05KT 4SM -SN BR SCT020 BKN040
TEMPO 2221/2301 1SM -SN BR SCT010 BKN020
FM230400 VRB04KT P6SM SCT040 BKN060


Example: see airport list